sensor_id;sensor_type;location;lat;lon;timestamp;pressure;altitude;pressure_sealevel;temperature;humidity
74722;BME280;63470;49.826;6.740;2023-05-10T00:00:38;99555.65;;;13.98;60.74
74722;BME280;63470;49.826;6.740;2023-05-10T00:03:09;99554.30;;;13.95;60.74
74722;BME280;63470;49.826;6.740;2023-05-10T00:05:39;99550.81;;;13.91;60.78
74722;BME280;63470;49.826;6.740;2023-05-10T00:08:10;99550.40;;;13.86;60.87
74722;BME280;63470;49.826;6.740;2023-05-10T00:10:41;99551.12;;;13.83;60.95
74722;BME280;63470;49.826;6.740;2023-05-10T00:13:11;99550.73;;;13.80;60.95
74722;BME280;63470;49.826;6.740;2023-05-10T00:15:41;99545.32;;;13.77;61.02
74722;BME280;63470;49.826;6.740;2023-05-10T00:18:12;99550.91;;;13.76;61.06
74722;BME280;63470;49.826;6.740;2023-05-10T00:20:42;99549.28;;;13.73;61.12
74722;BME280;63470;49.826;6.740;2023-05-10T00:23:13;99551.13;;;13.72;61.14
74722;BME280;63470;49.826;6.740;2023-05-10T00:25:43;99548.70;;;13.71;61.14
74722;BME280;63470;49.826;6.740;2023-05-10T00:28:14;99545.62;;;13.69;61.16
74722;BME280;63470;49.826;6.740;2023-05-10T00:30:44;99547.98;;;13.68;61.15
74722;BME280;63470;49.826;6.740;2023-05-10T00:33:15;99554.02;;;13.69;61.16
74722;BME280;63470;49.826;6.740;2023-05-10T00:35:45;99556.02;;;13.71;61.12
74722;BME280;63470;49.826;6.740;2023-05-10T00:38:16;99553.55;;;13.72;61.05
74722;BME280;63470;49.826;6.740;2023-05-10T00:40:47;99550.65;;;13.70;61.02
74722;BME280;63470;49.826;6.740;2023-05-10T00:43:16;99550.62;;;13.60;61.09
74722;BME280;63470;49.826;6.740;2023-05-10T00:45:47;99548.45;;;13.48;61.23
74722;BME280;63470;49.826;6.740;2023-05-10T00:48:17;99546.66;;;13.36;61.34
74722;BME280;63470;49.826;6.740;2023-05-10T00:50:47;99549.20;;;13.26;61.41
74722;BME280;63470;49.826;6.740;2023-05-10T00:53:18;99548.12;;;13.18;61.49
74722;BME280;63470;49.826;6.740;2023-05-10T00:55:48;99547.48;;;13.06;61.58
74722;BME280;63470;49.826;6.740;2023-05-10T00:58:19;99546.89;;;12.95;61.68
74722;BME280;63470;49.826;6.740;2023-05-10T01:00:50;99543.87;;;12.84;61.77
74722;BME280;63470;49.826;6.740;2023-05-10T01:03:20;99542.70;;;12.78;61.75
74722;BME280;63470;49.826;6.740;2023-05-10T01:05:50;99546.48;;;12.71;61.77
74722;BME280;63470;49.826;6.740;2023-05-10T01:08:21;99550.42;;;12.70;61.76
74722;BME280;63470;49.826;6.740;2023-05-10T01:10:51;99552.59;;;12.69;61.74
74722;BME280;63470;49.826;6.740;2023-05-10T01:13:30;99554.81;;;12.68;61.75
74722;BME280;63470;49.826;6.740;2023-05-10T01:15:52;99556.81;;;12.67;61.75
74722;BME280;63470;49.826;6.740;2023-05-10T01:18:23;99561.95;;;12.69;61.75
74722;BME280;63470;49.826;6.740;2023-05-10T01:21:07;99558.75;;;12.73;61.71
74722;BME280;63470;49.826;6.740;2023-05-10T01:23:43;99564.91;;;12.81;61.64
74722;BME280;63470;49.826;6.740;2023-05-10T01:28:42;99567.68;;;12.94;61.46
74722;BME280;63470;49.826;6.740;2023-05-10T01:31:07;99566.99;;;12.99;61.38
74722;BME280;63470;49.826;6.740;2023-05-10T01:33:52;99565.05;;;13.01;61.35
74722;BME280;63470;49.826;6.740;2023-05-10T01:36:13;99568.06;;;13.02;61.35
74722;BME280;63470;49.826;6.740;2023-05-10T01:38:33;99565.88;;;13.06;61.36
74722;BME280;63470;49.826;6.740;2023-05-10T01:43:31;99573.38;;;13.21;61.27
74722;BME280;63470;49.826;6.740;2023-05-10T01:46:02;99572.27;;;13.27;61.25
74722;BME280;63470;49.826;6.740;2023-05-10T01:48:29;99570.92;;;13.33;61.19
74722;BME280;63470;49.826;6.740;2023-05-10T01:50:58;99577.18;;;13.38;61.14
74722;BME280;63470;49.826;6.740;2023-05-10T01:53:30;99575.42;;;13.43;61.09
74722;BME280;63470;49.826;6.740;2023-05-10T01:56:00;99577.36;;;13.48;61.07
74722;BME280;63470;49.826;6.740;2023-05-10T01:58:31;99582.69;;;13.52;61.04
74722;BME280;63470;49.826;6.740;2023-05-10T02:01:03;99583.92;;;13.55;60.99
74722;BME280;63470;49.826;6.740;2023-05-10T02:03:32;99585.27;;;13.56;60.98
74722;BME280;63470;49.826;6.740;2023-05-10T02:06:01;99585.83;;;13.57;60.98
74722;BME280;63470;49.826;6.740;2023-05-10T02:08:33;99585.25;;;13.59;60.97
74722;BME280;63470;49.826;6.740;2023-05-10T02:11:03;99588.83;;;13.61;60.91
74722;BME280;63470;49.826;6.740;2023-05-10T02:13:34;99592.21;;;13.61;60.90
74722;BME280;63470;49.826;6.740;2023-05-10T02:16:05;99585.79;;;13.62;60.90
74722;BME280;63470;49.826;6.740;2023-05-10T02:18:34;99585.05;;;13.64;60.90
74722;BME280;63470;49.826;6.740;2023-05-10T02:21:04;99585.52;;;13.65;60.90
74722;BME280;63470;49.826;6.740;2023-05-10T02:23:34;99587.74;;;13.65;60.87
74722;BME280;63470;49.826;6.740;2023-05-10T02:26:06;99591.41;;;13.67;60.85
74722;BME280;63470;49.826;6.740;2023-05-10T02:28:35;99590.75;;;13.69;60.88
74722;BME280;63470;49.826;6.740;2023-05-10T02:31:05;99589.93;;;13.71;60.84
74722;BME280;63470;49.826;6.740;2023-05-10T02:33:35;99587.94;;;13.71;60.87
74722;BME280;63470;49.826;6.740;2023-05-10T02:36:08;99592.77;;;13.72;60.87
74722;BME280;63470;49.826;6.740;2023-05-10T02:38:36;99590.26;;;13.73;60.85
74722;BME280;63470;49.826;6.740;2023-05-10T02:41:08;99590.83;;;13.73;60.81
74722;BME280;63470;49.826;6.740;2023-05-10T02:43:39;99585.60;;;13.73;60.79
74722;BME280;63470;49.826;6.740;2023-05-10T02:46:07;99583.23;;;13.72;60.85
74722;BME280;63470;49.826;6.740;2023-05-10T02:48:39;99586.45;;;13.70;60.83
74722;BME280;63470;49.826;6.740;2023-05-10T02:51:09;99582.97;;;13.66;60.84
74722;BME280;63470;49.826;6.740;2023-05-10T02:53:41;99585.68;;;13.61;60.89
74722;BME280;63470;49.826;6.740;2023-05-10T02:56:25;99583.11;;;13.56;60.89
74722;BME280;63470;49.826;6.740;2023-05-10T02:58:39;99587.48;;;13.55;60.90
74722;BME280;63470;49.826;6.740;2023-05-10T03:01:10;99583.11;;;13.54;60.91
74722;BME280;63470;49.826;6.740;2023-05-10T03:03:43;99584.44;;;13.54;60.94
74722;BME280;63470;49.826;6.740;2023-05-10T03:06:11;99587.47;;;13.55;60.93
74722;BME280;63470;49.826;6.740;2023-05-10T03:08:43;99590.90;;;13.56;60.87
74722;BME280;63470;49.826;6.740;2023-05-10T03:11:37;99588.58;;;13.54;60.90
74722;BME280;63470;49.826;6.740;2023-05-10T03:16:32;99584.56;;;13.46;61.03
74722;BME280;63470;49.826;6.740;2023-05-10T03:19:06;99587.87;;;13.40;61.09
74722;BME280;63470;49.826;6.740;2023-05-10T03:21:18;99590.84;;;13.32;61.21
74722;BME280;63470;49.826;6.740;2023-05-10T03:23:58;99593.47;;;13.25;61.24
74722;BME280;63470;49.826;6.740;2023-05-10T03:26:24;99590.27;;;13.21;61.29
74722;BME280;63470;49.826;6.740;2023-05-10T03:28:47;99591.34;;;13.16;61.32
74722;BME280;63470;49.826;6.740;2023-05-10T03:31:17;99596.95;;;13.15;61.37
74722;BME280;63470;49.826;6.740;2023-05-10T03:33:48;99600.71;;;13.13;61.44
74722;BME280;63470;49.826;6.740;2023-05-10T03:36:18;99603.34;;;13.14;61.44
74722;BME280;63470;49.826;6.740;2023-05-10T03:38:48;99601.72;;;13.17;61.40
74722;BME280;63470;49.826;6.740;2023-05-10T03:41:18;99599.42;;;13.21;61.33
74722;BME280;63470;49.826;6.740;2023-05-10T03:43:49;99604.96;;;13.27;61.29
74722;BME280;63470;49.826;6.740;2023-05-10T03:46:19;99606.01;;;13.31;61.23
74722;BME280;63470;49.826;6.740;2023-05-10T03:48:50;99610.47;;;13.36;61.15
74722;BME280;63470;49.826;6.740;2023-05-10T03:51:21;99606.69;;;13.40;61.10
74722;BME280;63470;49.826;6.740;2023-05-10T03:53:51;99606.59;;;13.42;61.07
74722;BME280;63470;49.826;6.740;2023-05-10T03:56:22;99605.13;;;13.44;61.08
74722;BME280;63470;49.826;6.740;2023-05-10T03:58:52;99607.80;;;13.43;61.08
74722;BME280;63470;49.826;6.740;2023-05-10T04:01:23;99606.71;;;13.43;61.06
74722;BME280;63470;49.826;6.740;2023-05-10T04:03:53;99604.52;;;13.43;61.09
74722;BME280;63470;49.826;6.740;2023-05-10T04:06:24;99601.33;;;13.43;61.07
74722;BME280;63470;49.826;6.740;2023-05-10T04:08:54;99602.33;;;13.45;61.03
74722;BME280;63470;49.826;6.740;2023-05-10T04:11:25;99596.23;;;13.45;61.05
74722;BME280;63470;49.826;6.740;2023-05-10T04:13:55;99599.48;;;13.46;61.06
74722;BME280;63470;49.826;6.740;2023-05-10T04:16:25;99602.49;;;13.50;61.03
74722;BME280;63470;49.826;6.740;2023-05-10T04:18:56;99599.17;;;13.52;60.98
74722;BME280;63470;49.826;6.740;2023-05-10T04:21:26;99602.16;;;13.57;60.95
74722;BME280;63470;49.826;6.740;2023-05-10T04:23:57;99600.53;;;13.60;60.94
74722;BME280;63470;49.826;6.740;2023-05-10T04:26:27;99604.17;;;13.63;60.92
74722;BME280;63470;49.826;6.740;2023-05-10T04:28:58;99599.80;;;13.64;60.93
74722;BME280;63470;49.826;6.740;2023-05-10T04:31:28;99599.88;;;13.66;60.88
74722;BME280;63470;49.826;6.740;2023-05-10T04:33:59;99596.96;;;13.67;60.86
74722;BME280;63470;49.826;6.740;2023-05-10T04:36:29;99602.93;;;13.67;60.89
74722;BME280;63470;49.826;6.740;2023-05-10T04:39:00;99604.27;;;13.71;60.87
74722;BME280;63470;49.826;6.740;2023-05-10T04:41:30;99604.20;;;13.79;60.79
74722;BME280;63470;49.826;6.740;2023-05-10T04:44:00;99610.05;;;13.90;60.73
74722;BME280;63470;49.826;6.740;2023-05-10T04:46:31;99614.96;;;14.00;60.61
74722;BME280;63470;49.826;6.740;2023-05-10T04:49:01;99614.61;;;14.09;60.51
74722;BME280;63470;49.826;6.740;2023-05-10T04:51:33;99620.91;;;14.17;60.42
74722;BME280;63470;49.826;6.740;2023-05-10T04:54:02;99627.06;;;14.23;60.35
74722;BME280;63470;49.826;6.740;2023-05-10T04:56:33;99629.05;;;14.28;60.29
74722;BME280;63470;49.826;6.740;2023-05-10T04:59:04;99626.75;;;14.32;60.35
74722;BME280;63470;49.826;6.740;2023-05-10T05:01:34;99629.58;;;14.38;60.36
74722;BME280;63470;49.826;6.740;2023-05-10T05:04:05;99631.77;;;14.45;60.32
74722;BME280;63470;49.826;6.740;2023-05-10T05:06:35;99639.22;;;14.49;60.25
74722;BME280;63470;49.826;6.740;2023-05-10T05:09:06;99645.87;;;14.51;60.27
74722;BME280;63470;49.826;6.740;2023-05-10T05:11:36;99646.78;;;14.51;60.26
74722;BME280;63470;49.826;6.740;2023-05-10T05:14:07;99643.78;;;14.49;60.34
74722;BME280;63470;49.826;6.740;2023-05-10T05:16:37;99649.19;;;14.49;60.38
74722;BME280;63470;49.826;6.740;2023-05-10T05:19:08;99653.33;;;14.47;60.41
74722;BME280;63470;49.826;6.740;2023-05-10T05:21:42;99650.02;;;14.47;60.40
74722;BME280;63470;49.826;6.740;2023-05-10T05:24:11;99653.02;;;14.46;60.41
74722;BME280;63470;49.826;6.740;2023-05-10T05:26:40;99655.30;;;14.48;60.41
74722;BME280;63470;49.826;6.740;2023-05-10T05:29:13;99654.39;;;14.50;60.39
74722;BME280;63470;49.826;6.740;2023-05-10T05:31:40;99662.14;;;14.51;60.36
74722;BME280;63470;49.826;6.740;2023-05-10T05:34:11;99660.15;;;14.51;60.41
74722;BME280;63470;49.826;6.740;2023-05-10T05:36:42;99666.92;;;14.50;60.44
74722;BME280;63470;49.826;6.740;2023-05-10T05:39:12;99669.05;;;14.48;60.45
74722;BME280;63470;49.826;6.740;2023-05-10T05:41:43;99667.67;;;14.46;60.49
74722;BME280;63470;49.826;6.740;2023-05-10T05:44:13;99666.03;;;14.43;60.51
74722;BME280;63470;49.826;6.740;2023-05-10T05:46:44;99669.50;;;14.42;60.57
74722;BME280;63470;49.826;6.740;2023-05-10T05:49:14;99673.01;;;14.43;60.60
74722;BME280;63470;49.826;6.740;2023-05-10T05:51:46;99676.48;;;14.50;60.56
74722;BME280;63470;49.826;6.740;2023-05-10T05:54:16;99679.05;;;14.64;60.38
74722;BME280;63470;49.826;6.740;2023-05-10T05:56:46;99677.45;;;14.82;60.19
74722;BME280;63470;49.826;6.740;2023-05-10T05:59:16;99687.42;;;14.94;60.02
74722;BME280;63470;49.826;6.740;2023-05-10T06:01:47;99687.00;;;14.96;60.03
74722;BME280;63470;49.826;6.740;2023-05-10T06:04:18;99693.98;;;14.94;60.17
74722;BME280;63470;49.826;6.740;2023-05-10T06:06:48;99692.72;;;14.91;60.26
74722;BME280;63470;49.826;6.740;2023-05-10T06:09:19;99697.64;;;14.88;60.34
74722;BME280;63470;49.826;6.740;2023-05-10T06:11:49;99699.55;;;14.88;60.38
74722;BME280;63470;49.826;6.740;2023-05-10T06:14:20;99701.98;;;14.89;60.44
74722;BME280;63470;49.826;6.740;2023-05-10T06:16:51;99704.64;;;14.93;60.46
74722;BME280;63470;49.826;6.740;2023-05-10T06:19:21;99704.47;;;15.01;60.39
74722;BME280;63470;49.826;6.740;2023-05-10T06:21:52;99711.23;;;15.12;60.34
74722;BME280;63470;49.826;6.740;2023-05-10T06:24:22;99708.30;;;15.26;60.21
74722;BME280;63470;49.826;6.740;2023-05-10T06:26:52;99717.03;;;15.30;60.29
74722;BME280;63470;49.826;6.740;2023-05-10T06:29:23;99718.27;;;15.33;60.40
74722;BME280;63470;49.826;6.740;2023-05-10T06:31:55;99723.95;;;15.54;60.45
74722;BME280;63470;49.826;6.740;2023-05-10T06:34:24;99728.70;;;15.73;60.54
74722;BME280;63470;49.826;6.740;2023-05-10T06:36:55;99731.27;;;15.79;60.55
74722;BME280;63470;49.826;6.740;2023-05-10T06:39:25;99734.83;;;15.84;60.49
74722;BME280;63470;49.826;6.740;2023-05-10T06:41:56;99736.38;;;15.94;60.59
74722;BME280;63470;49.826;6.740;2023-05-10T06:44:26;99732.66;;;16.13;60.39
74722;BME280;63470;49.826;6.740;2023-05-10T06:46:57;99731.89;;;16.05;60.56
74722;BME280;63470;49.826;6.740;2023-05-10T06:49:27;99738.14;;;15.90;60.71
74722;BME280;63470;49.826;6.740;2023-05-10T06:51:58;99737.33;;;15.77;60.82
74722;BME280;63470;49.826;6.740;2023-05-10T06:54:28;99741.36;;;15.74;60.89
74722;BME280;63470;49.826;6.740;2023-05-10T06:56:59;99742.00;;;15.73;60.94
74722;BME280;63470;49.826;6.740;2023-05-10T06:59:29;99745.50;;;15.75;60.90
74722;BME280;63470;49.826;6.740;2023-05-10T07:01:59;99740.64;;;15.81;60.84
74722;BME280;63470;49.826;6.740;2023-05-10T07:04:30;99747.72;;;15.86;60.84
74722;BME280;63470;49.826;6.740;2023-05-10T07:07:01;99747.16;;;15.84;61.01
74722;BME280;63470;49.826;6.740;2023-05-10T07:09:31;99750.91;;;15.76;61.15
74722;BME280;63470;49.826;6.740;2023-05-10T07:12:03;99756.20;;;15.62;61.34
74722;BME280;63470;49.826;6.740;2023-05-10T07:14:32;99757.22;;;15.54;61.31
74722;BME280;63470;49.826;6.740;2023-05-10T07:17:03;99753.64;;;15.41;61.43
74722;BME280;63470;49.826;6.740;2023-05-10T07:19:34;99754.12;;;15.25;61.50
74722;BME280;63470;49.826;6.740;2023-05-10T07:22:04;99755.28;;;15.12;61.58
74722;BME280;63470;49.826;6.740;2023-05-10T07:24:35;99756.38;;;15.03;61.62
74722;BME280;63470;49.826;6.740;2023-05-10T07:27:05;99755.61;;;15.00;61.64
74722;BME280;63470;49.826;6.740;2023-05-10T07:29:36;99761.11;;;15.08;61.48
74722;BME280;63470;49.826;6.740;2023-05-10T07:32:06;99765.62;;;15.31;61.23
74722;BME280;63470;49.826;6.740;2023-05-10T07:34:39;99766.00;;;15.66;60.83
74722;BME280;63470;49.826;6.740;2023-05-10T07:37:08;99765.94;;;16.17;60.28
74722;BME280;63470;49.826;6.740;2023-05-10T07:39:38;99764.27;;;16.64;59.81
74722;BME280;63470;49.826;6.740;2023-05-10T07:42:09;99764.39;;;16.69;59.91
74722;BME280;63470;49.826;6.740;2023-05-10T07:44:38;99764.59;;;16.87;59.85
74722;BME280;63470;49.826;6.740;2023-05-10T07:47:09;99766.34;;;17.24;59.69
74722;BME280;63470;49.826;6.740;2023-05-10T07:49:39;99763.77;;;17.88;59.33
74722;BME280;63470;49.826;6.740;2023-05-10T07:52:10;99769.09;;;18.33;59.12
74722;BME280;63470;49.826;6.740;2023-05-10T07:54:40;99769.64;;;18.23;59.42
74722;BME280;63470;49.826;6.740;2023-05-10T07:57:11;99769.05;;;17.89;60.09
74722;BME280;63470;49.826;6.740;2023-05-10T07:59:42;99771.34;;;17.60;60.51
74722;BME280;63470;49.826;6.740;2023-05-10T08:02:12;99777.22;;;17.39;60.85
74722;BME280;63470;49.826;6.740;2023-05-10T08:04:42;99776.15;;;17.27;61.02
74722;BME280;63470;49.826;6.740;2023-05-10T08:07:13;99775.95;;;17.22;61.17
74722;BME280;63470;49.826;6.740;2023-05-10T08:09:43;99776.55;;;17.30;60.99
74722;BME280;63470;49.826;6.740;2023-05-10T08:12:14;99774.98;;;17.28;60.90
74722;BME280;63470;49.826;6.740;2023-05-10T08:14:44;99777.98;;;17.19;60.92
74722;BME280;63470;49.826;6.740;2023-05-10T08:17:14;99776.81;;;17.18;60.86
74722;BME280;63470;49.826;6.740;2023-05-10T08:19:45;99777.60;;;17.24;60.65
74722;BME280;63470;49.826;6.740;2023-05-10T08:22:17;99780.66;;;17.36;60.46
74722;BME280;63470;49.826;6.740;2023-05-10T08:24:46;99776.95;;;17.40;60.34
74722;BME280;63470;49.826;6.740;2023-05-10T08:27:17;99780.30;;;17.50;60.25
74722;BME280;63470;49.826;6.740;2023-05-10T08:29:47;99780.34;;;17.60;60.15
74722;BME280;63470;49.826;6.740;2023-05-10T08:32:17;99783.22;;;17.82;59.94
74722;BME280;63470;49.826;6.740;2023-05-10T08:34:48;99786.88;;;18.09;59.63
74722;BME280;63470;49.826;6.740;2023-05-10T08:37:18;99782.53;;;18.28;59.51
74722;BME280;63470;49.826;6.740;2023-05-10T08:39:49;99785.05;;;18.48;59.40
74722;BME280;63470;49.826;6.740;2023-05-10T08:42:22;99779.77;;;18.68;59.25
74722;BME280;63470;49.826;6.740;2023-05-10T08:44:51;99775.33;;;18.97;59.05
74722;BME280;63470;49.826;6.740;2023-05-10T08:47:21;99768.80;;;19.79;58.72
74722;BME280;63470;49.826;6.740;2023-05-10T08:49:52;99771.14;;;21.61;58.12
74722;BME280;63470;49.826;6.740;2023-05-10T08:52:25;99765.11;;;23.46;56.56
74722;BME280;63470;49.826;6.740;2023-05-10T08:54:53;99769.63;;;23.70;56.80
74722;BME280;63470;49.826;6.740;2023-05-10T08:57:24;99773.31;;;22.81;58.11
74722;BME280;63470;49.826;6.740;2023-05-10T08:59:55;99777.67;;;21.44;60.16
74722;BME280;63470;49.826;6.740;2023-05-10T09:02:26;99774.12;;;20.39;61.81
74722;BME280;63470;49.826;6.740;2023-05-10T09:04:56;99781.52;;;19.81;62.22
74722;BME280;63470;49.826;6.740;2023-05-10T09:07:27;99785.35;;;19.12;62.75
74722;BME280;63470;49.826;6.740;2023-05-10T09:09:57;99804.09;;;18.40;63.32
74722;BME280;63470;49.826;6.740;2023-05-10T09:12:27;99820.30;;;17.53;63.40
74722;BME280;63470;49.826;6.740;2023-05-10T09:14:59;99818.30;;;16.22;64.32
74722;BME280;63470;49.826;6.740;2023-05-10T09:17:29;99835.09;;;15.15;65.42
74722;BME280;63470;49.826;6.740;2023-05-10T09:20:01;99840.64;;;14.49;66.02
74722;BME280;63470;49.826;6.740;2023-05-10T09:22:29;99845.72;;;14.17;66.06
74722;BME280;63470;49.826;6.740;2023-05-10T09:25:11;99844.04;;;14.06;65.79
74722;BME280;63470;49.826;6.740;2023-05-10T09:27:29;99854.63;;;14.05;65.33
74722;BME280;63470;49.826;6.740;2023-05-10T09:30:00;99852.09;;;14.11;64.97
74722;BME280;63470;49.826;6.740;2023-05-10T09:32:41;99857.11;;;14.28;64.59
74722;BME280;63470;49.826;6.740;2023-05-10T09:35:06;99856.22;;;14.43;64.25
74722;BME280;63470;49.826;6.740;2023-05-10T09:37:30;99856.53;;;14.59;63.92
74722;BME280;63470;49.826;6.740;2023-05-10T09:40:04;99857.62;;;14.65;63.83
74722;BME280;63470;49.826;6.740;2023-05-10T09:42:32;99859.86;;;14.72;63.80
74722;BME280;63470;49.826;6.740;2023-05-10T09:45:03;99855.67;;;14.85;63.65
74722;BME280;63470;49.826;6.740;2023-05-10T09:47:34;99853.67;;;15.12;63.43
74722;BME280;63470;49.826;6.740;2023-05-10T09:50:07;99854.08;;;15.57;62.88
74722;BME280;63470;49.826;6.740;2023-05-10T09:52:48;99857.04;;;15.88;62.37
74722;BME280;63470;49.826;6.740;2023-05-10T09:55:06;99853.80;;;16.09;62.03
74722;BME280;63470;49.826;6.740;2023-05-10T09:57:35;99853.66;;;16.22;61.86
74722;BME280;63470;49.826;6.740;2023-05-10T10:00:06;99853.44;;;16.24;61.81
74722;BME280;63470;49.826;6.740;2023-05-10T10:02:36;99851.50;;;16.23;61.87
74722;BME280;63470;49.826;6.740;2023-05-10T10:05:06;99855.69;;;16.32;61.94
74722;BME280;63470;49.826;6.740;2023-05-10T10:07:36;99856.03;;;16.37;61.86
74722;BME280;63470;49.826;6.740;2023-05-10T10:10:12;99856.83;;;16.21;61.87
74722;BME280;63470;49.826;6.740;2023-05-10T10:12:38;99854.92;;;16.01;62.09
74722;BME280;63470;49.826;6.740;2023-05-10T10:15:08;99859.63;;;15.92;62.32
74722;BME280;63470;49.826;6.740;2023-05-10T10:17:41;99854.48;;;16.05;62.23
74722;BME280;63470;49.826;6.740;2023-05-10T10:20:13;99853.36;;;16.32;62.01
74722;BME280;63470;49.826;6.740;2023-05-10T10:22:39;99850.90;;;16.69;61.60
74722;BME280;63470;49.826;6.740;2023-05-10T10:25:11;99847.49;;;17.22;61.05
74722;BME280;63470;49.826;6.740;2023-05-10T10:27:52;99849.62;;;17.84;60.40
74722;BME280;63470;49.826;6.740;2023-05-10T10:30:35;99842.24;;;18.23;59.95
74722;BME280;63470;49.826;6.740;2023-05-10T10:35:12;99839.33;;;18.76;59.66
74722;BME280;63470;49.826;6.740;2023-05-10T10:37:44;99833.00;;;19.28;59.14
74722;BME280;63470;49.826;6.740;2023-05-10T10:40:30;99831.75;;;19.44;59.10
74722;BME280;63470;49.826;6.740;2023-05-10T10:42:44;99827.10;;;19.88;58.77
74722;BME280;63470;49.826;6.740;2023-05-10T10:45:14;99827.54;;;20.11;58.52
74722;BME280;63470;49.826;6.740;2023-05-10T10:47:44;99828.73;;;20.29;58.44
74722;BME280;63470;49.826;6.740;2023-05-10T10:50:16;99821.69;;;20.25;58.80
74722;BME280;63470;49.826;6.740;2023-05-10T10:52:46;99827.52;;;20.22;59.20
74722;BME280;63470;49.826;6.740;2023-05-10T10:55:20;99827.09;;;20.27;59.31
74722;BME280;63470;49.826;6.740;2023-05-10T10:57:49;99828.34;;;20.39;59.40
74722;BME280;63470;49.826;6.740;2023-05-10T11:00:26;99830.48;;;20.62;59.32
74722;BME280;63470;49.826;6.740;2023-05-10T11:02:53;99831.62;;;20.75;59.17
74722;BME280;63470;49.826;6.740;2023-05-10T11:05:40;99834.46;;;20.61;59.51
74722;BME280;63470;49.826;6.740;2023-05-10T11:07:58;99835.59;;;20.49;59.73
74722;BME280;63470;49.826;6.740;2023-05-10T11:10:21;99838.89;;;20.43;60.08
74722;BME280;63470;49.826;6.740;2023-05-10T11:13:06;99838.05;;;20.28;60.46
74722;BME280;63470;49.826;6.740;2023-05-10T11:15:19;99844.75;;;19.98;60.91
74722;BME280;63470;49.826;6.740;2023-05-10T11:17:53;99844.33;;;19.66;61.49
74722;BME280;63470;49.826;6.740;2023-05-10T11:20:43;99845.57;;;19.64;61.55
74722;BME280;63470;49.826;6.740;2023-05-10T11:22:52;99846.58;;;19.75;61.41
74722;BME280;63470;49.826;6.740;2023-05-10T11:25:26;99842.44;;;19.92;61.15
74722;BME280;63470;49.826;6.740;2023-05-10T11:27:52;99843.91;;;20.14;60.76
74722;BME280;63470;49.826;6.740;2023-05-10T11:30:28;99843.91;;;20.36;60.44
74722;BME280;63470;49.826;6.740;2023-05-10T11:32:58;99842.08;;;20.54;60.21
74722;BME280;63470;49.826;6.740;2023-05-10T11:35:29;99843.35;;;20.54;60.13
74722;BME280;63470;49.826;6.740;2023-05-10T11:38:09;99842.23;;;20.51;60.34
74722;BME280;63470;49.826;6.740;2023-05-10T11:40:40;99846.58;;;20.61;60.35
74722;BME280;63470;49.826;6.740;2023-05-10T11:42:56;99852.19;;;20.75;60.22
74722;BME280;63470;49.826;6.740;2023-05-10T11:45:39;99854.36;;;20.93;59.94
74722;BME280;63470;49.826;6.740;2023-05-10T11:47:57;99845.09;;;21.17;59.80
74722;BME280;63470;49.826;6.740;2023-05-10T11:50:36;99844.32;;;21.45;59.42
74722;BME280;63470;49.826;6.740;2023-05-10T11:53:04;99848.31;;;21.35;59.60
74722;BME280;63470;49.826;6.740;2023-05-10T11:55:35;99853.34;;;21.30;59.81
74722;BME280;63470;49.826;6.740;2023-05-10T11:58:12;99853.58;;;21.26;59.98
74722;BME280;63470;49.826;6.740;2023-05-10T12:00:34;99854.58;;;21.20;60.03
74722;BME280;63470;49.826;6.740;2023-05-10T12:03:08;99852.93;;;21.16;60.14
74722;BME280;63470;49.826;6.740;2023-05-10T12:05:33;99852.69;;;21.08;60.33
74722;BME280;63470;49.826;6.740;2023-05-10T12:08:20;99858.72;;;21.02;60.42
74722;BME280;63470;49.826;6.740;2023-05-10T12:10:36;99856.36;;;21.01;60.43
74722;BME280;63470;49.826;6.740;2023-05-10T12:13:17;99861.62;;;21.03;60.44
74722;BME280;63470;49.826;6.740;2023-05-10T12:15:36;99857.01;;;21.07;60.35
74722;BME280;63470;49.826;6.740;2023-05-10T12:18:04;99856.14;;;21.12;60.25
74722;BME280;63470;49.826;6.740;2023-05-10T12:20:42;99858.44;;;20.99;60.38
74722;BME280;63470;49.826;6.740;2023-05-10T12:23:13;99865.09;;;20.91;60.51
74722;BME280;63470;49.826;6.740;2023-05-10T12:25:46;99861.59;;;20.79;60.63
74722;BME280;63470;49.826;6.740;2023-05-10T12:28:10;99866.02;;;20.74;60.64
74722;BME280;63470;49.826;6.740;2023-05-10T12:30:41;99865.70;;;20.75;60.65
74722;BME280;63470;49.826;6.740;2023-05-10T12:33:15;99862.97;;;20.86;60.48
74722;BME280;63470;49.826;6.740;2023-05-10T12:35:49;99865.31;;;21.10;60.18
74722;BME280;63470;49.826;6.740;2023-05-10T12:38:29;99855.33;;;21.47;59.69
74722;BME280;63470;49.826;6.740;2023-05-10T12:40:37;99858.47;;;21.85;59.14
74722;BME280;63470;49.826;6.740;2023-05-10T12:43:15;99863.89;;;22.23;58.62
74722;BME280;63470;49.826;6.740;2023-05-10T12:45:45;99863.50;;;22.34;58.49
74722;BME280;63470;49.826;6.740;2023-05-10T12:48:08;99868.02;;;22.37;58.58
74722;BME280;63470;49.826;6.740;2023-05-10T12:50:39;99868.42;;;22.24;58.86
74722;BME280;63470;49.826;6.740;2023-05-10T12:53:15;99868.92;;;22.02;59.23
74722;BME280;63470;49.826;6.740;2023-05-10T12:55:45;99868.89;;;21.69;59.73
74722;BME280;63470;49.826;6.740;2023-05-10T12:58:18;99869.48;;;21.36;60.22
74722;BME280;63470;49.826;6.740;2023-05-10T13:00:42;99870.70;;;21.00;60.56
74722;BME280;63470;49.826;6.740;2023-05-10T13:03:12;99871.99;;;20.67;60.97
74722;BME280;63470;49.826;6.740;2023-05-10T13:05:43;99875.34;;;20.31;61.22
74722;BME280;63470;49.826;6.740;2023-05-10T13:08:14;99877.22;;;19.89;61.67
74722;BME280;63470;49.826;6.740;2023-05-10T13:10:44;99880.10;;;19.47;62.15
74722;BME280;63470;49.826;6.740;2023-05-10T13:13:15;99884.34;;;19.05;62.58
74722;BME280;63470;49.826;6.740;2023-05-10T13:15:46;99884.01;;;18.68;62.91
74722;BME280;63470;49.826;6.740;2023-05-10T13:18:16;99890.22;;;18.34;63.02
74722;BME280;63470;49.826;6.740;2023-05-10T13:20:47;99889.44;;;18.08;63.13
74722;BME280;63470;49.826;6.740;2023-05-10T13:23:18;99888.27;;;17.92;63.06
74722;BME280;63470;49.826;6.740;2023-05-10T13:25:49;99884.22;;;17.88;62.92